Time;durP1;ratioP1;P1;durP2;ratioP2;P2;SDS_P1;SDS_P2;PMS_P1;PMS_P2;Temp;Humidity;BMP_temperature;BMP_pressure;BME280_temperature;BME280_humidity;BME280_pressure;Samples;Min_cycle;Max_cycle;Signal;HPM_P1;HPM_P2
2024/01/19 00:00:10;;;;;;;44.47;18.57;;;-0.10;84.70;;;;;;5032117;28;20303;-71
2024/01/19 00:02:36;;;;;;;40.90;16.83;;;-0.10;84.70;;;;;;5033104;28;20190;-72
2024/01/19 00:05:03;;;;;;;44.63;19.20;;;0.00;84.70;;;;;;5037036;28;20418;-69
2024/01/19 00:07:29;;;;;;;40.20;18.50;;;-0.10;84.60;;;;;;5038974;28;20450;-70
2024/01/19 00:09:54;;;;;;;42.85;18.85;;;-0.20;84.60;;;;;;5037639;28;20296;-70
2024/01/19 00:12:20;;;;;;;44.60;19.83;;;-0.20;84.60;;;;;;5026122;28;20182;-72
2024/01/19 00:14:46;;;;;;;42.83;17.57;;;-0.10;84.60;;;;;;5038813;28;20190;-70
2024/01/19 00:17:11;;;;;;;48.97;21.17;;;-0.10;84.60;;;;;;5032863;28;20182;-71
2024/01/19 00:19:37;;;;;;;46.67;19.37;;;0.10;84.70;;;;;;5030268;28;20204;-71
2024/01/19 00:22:02;;;;;;;41.03;20.70;;;0.00;84.60;;;;;;5028811;28;20214;-69
2024/01/19 00:24:28;;;;;;;39.87;19.37;;;0.20;84.70;;;;;;5038691;28;20266;-70
2024/01/19 00:26:54;;;;;;;41.73;18.53;;;0.10;84.40;;;;;;5044820;28;20207;-69
2024/01/19 00:29:21;;;;;;;52.70;21.35;;;0.10;84.30;;;;;;5046485;28;20264;-70
2024/01/19 00:31:48;;;;;;;56.15;21.23;;;0.20;84.30;;;;;;5035118;28;20201;-72
2024/01/19 00:34:14;;;;;;;40.47;18.27;;;0.20;84.30;;;;;;5039223;28;20174;-73
2024/01/19 00:36:40;;;;;;;37.60;17.40;;;0.10;84.00;;;;;;5034773;28;20220;-72
2024/01/19 00:39:06;;;;;;;41.20;18.63;;;0.10;83.70;;;;;;5040124;28;20200;-72
2024/01/19 00:41:31;;;;;;;41.93;18.20;;;0.00;83.60;;;;;;5034216;28;20204;-71
2024/01/19 00:43:57;;;;;;;41.43;18.70;;;0.00;83.40;;;;;;5037334;28;20277;-71
2024/01/19 00:46:23;;;;;;;46.80;18.40;;;0.00;83.40;;;;;;5041972;28;20165;-72
2024/01/19 00:48:49;;;;;;;33.83;16.83;;;0.00;83.40;;;;;;5044793;28;20165;-71
2024/01/19 00:51:15;;;;;;;33.07;15.80;;;0.00;83.60;;;;;;5031067;28;20217;-73
2024/01/19 00:53:41;;;;;;;35.88;16.25;;;0.20;83.70;;;;;;5032930;28;20249;-73
2024/01/19 00:56:08;;;;;;;39.73;16.90;;;0.20;83.60;;;;;;5038710;28;20248;-71
2024/01/19 00:58:35;;;;;;;41.95;17.52;;;0.20;83.10;;;;;;5034194;28;20212;-73
2024/01/19 01:01:00;;;;;;;41.35;17.23;;;0.10;82.80;;;;;;5041518;28;20213;-73
2024/01/19 01:03:28;;;;;;;38.20;17.20;;;0.00;82.80;;;;;;5039399;28;20236;-70
2024/01/19 01:05:59;;;;;;;42.90;17.60;;;0.00;83.00;;;;;;5041156;28;20182;-72
2024/01/19 01:08:25;;;;;;;38.28;15.80;;;0.00;83.10;;;;;;5038992;28;20265;-70
2024/01/19 01:10:52;;;;;;;34.45;15.13;;;0.00;83.40;;;;;;5033179;28;20226;-72
2024/01/19 01:13:18;;;;;;;42.67;18.02;;;0.10;83.10;;;;;;5035718;28;20178;-72
2024/01/19 01:15:44;;;;;;;38.10;15.87;;;0.10;83.10;;;;;;5030282;28;20202;-72
2024/01/19 01:18:11;;;;;;;33.17;16.67;;;0.10;83.10;;;;;;5025734;28;20683;-73
2024/01/19 01:20:37;;;;;;;38.72;17.73;;;0.20;83.00;;;;;;5028397;28;20484;-72
2024/01/19 01:23:03;;;;;;;39.08;16.30;;;0.10;82.80;;;;;;5038522;28;20201;-73
2024/01/19 01:25:30;;;;;;;44.43;17.37;;;0.10;83.10;;;;;;5034285;28;20166;-72
2024/01/19 01:27:56;;;;;;;44.58;17.45;;;0.10;83.40;;;;;;5036387;28;20194;-72
2024/01/19 01:30:22;;;;;;;30.90;15.65;;;0.10;83.60;;;;;;5029699;28;20214;-71
2024/01/19 01:32:47;;;;;;;42.60;16.73;;;0.20;83.60;;;;;;5035720;28;20193;-73
2024/01/19 01:35:13;;;;;;;44.07;14.87;;;0.20;83.40;;;;;;5034182;28;20461;-70
2024/01/19 01:37:39;;;;;;;40.37;18.20;;;0.10;83.10;;;;;;5040986;28;20363;-73
2024/01/19 01:40:05;;;;;;;39.83;18.07;;;0.10;83.60;;;;;;5037044;28;20201;-71
2024/01/19 01:42:31;;;;;;;48.00;17.48;;;0.00;83.70;;;;;;5033349;28;20335;-72
2024/01/19 01:44:58;;;;;;;44.43;19.93;;;0.10;83.70;;;;;;5033479;28;20173;-72
2024/01/19 01:47:23;;;;;;;47.67;19.65;;;0.00;83.70;;;;;;5028384;28;20177;-72
2024/01/19 01:49:49;;;;;;;46.23;18.50;;;0.10;84.00;;;;;;5030393;28;20237;-72
2024/01/19 01:52:16;;;;;;;38.13;17.60;;;0.10;84.00;;;;;;5028192;28;20185;-73
2024/01/19 01:54:42;;;;;;;48.05;19.70;;;0.00;84.10;;;;;;5024564;28;20252;-72
2024/01/19 01:57:07;;;;;;;47.17;20.10;;;0.00;84.00;;;;;;5029676;28;20263;-72
2024/01/19 01:59:33;;;;;;;44.77;18.73;;;0.00;84.30;;;;;;5019740;28;20182;-71
2024/01/19 02:01:59;;;;;;;45.70;20.07;;;0.10;84.30;;;;;;5017115;28;20240;-71
2024/01/19 02:04:25;;;;;;;36.53;17.87;;;0.20;84.10;;;;;;5023255;28;20631;-71
2024/01/19 02:06:51;;;;;;;38.47;19.00;;;0.10;84.10;;;;;;5025065;28;20441;-71
2024/01/19 02:09:18;;;;;;;38.72;16.75;;;0.10;84.10;;;;;;5017922;28;20206;-72
2024/01/19 02:11:44;;;;;;;37.55;17.45;;;0.20;84.10;;;;;;5016131;28;20213;-72
2024/01/19 02:14:10;;;;;;;28.73;15.83;;;0.20;84.00;;;;;;5018488;28;20189;-71
2024/01/19 02:16:36;;;;;;;35.90;17.63;;;0.30;83.70;;;;;;5026209;28;20561;-70
2024/01/19 02:19:02;;;;;;;39.10;17.90;;;0.10;83.40;;;;;;5020114;28;20249;-71
2024/01/19 02:21:28;;;;;;;40.07;18.33;;;-0.10;83.00;;;;;;5016371;28;20276;-72
2024/01/19 02:24:02;;;;;;;41.65;17.63;;;-0.20;83.40;;;;;;5030430;28;20181;-72
2024/01/19 02:26:28;;;;;;;42.65;19.10;;;-0.20;83.70;;;;;;5030059;28;20185;-72
2024/01/19 02:28:54;;;;;;;43.35;17.90;;;-0.10;83.70;;;;;;5032337;28;20193;-71
2024/01/19 02:31:20;;;;;;;35.73;17.73;;;0.00;83.70;;;;;;5027309;28;20220;-72
2024/01/19 02:33:45;;;;;;;36.87;16.43;;;0.00;83.70;;;;;;5020606;28;20244;-72
2024/01/19 02:36:11;;;;;;;33.60;15.40;;;0.10;83.70;;;;;;5026907;28;20186;-71
2024/01/19 02:38:36;;;;;;;43.57;18.10;;;0.00;83.10;;;;;;5020050;28;20264;-72
2024/01/19 02:41:02;;;;;;;37.80;17.90;;;0.00;83.10;;;;;;5024327;28;20293;-71
2024/01/19 02:43:27;;;;;;;35.37;16.30;;;0.10;83.10;;;;;;5030608;28;20552;-72
2024/01/19 02:45:53;;;;;;;32.83;16.13;;;0.10;83.10;;;;;;5028555;28;20186;-71
2024/01/19 02:48:18;;;;;;;39.97;18.23;;;-0.10;83.00;;;;;;5029842;28;20607;-72
2024/01/19 02:50:44;;;;;;;31.73;16.30;;;-0.10;83.10;;;;;;5015689;28;20245;-72
2024/01/19 02:53:10;;;;;;;30.00;14.80;;;0.00;83.60;;;;;;5028305;28;20190;-71
2024/01/19 02:55:36;;;;;;;31.50;15.43;;;0.10;83.60;;;;;;5021065;28;20483;-72
2024/01/19 02:58:01;;;;;;;40.00;17.20;;;0.00;83.10;;;;;;5030165;28;20288;-72
2024/01/19 03:00:27;;;;;;;35.10;16.33;;;-0.10;83.00;;;;;;5016774;28;20213;-72
2024/01/19 03:02:52;;;;;;;34.83;15.10;;;-0.10;83.10;;;;;;5022458;28;20184;-71
2024/01/19 03:05:19;;;;;;;39.90;16.60;;;-0.10;83.40;;;;;;5019651;28;20287;-72
2024/01/19 03:07:45;;;;;;;35.97;15.27;;;0.00;83.60;;;;;;5030430;28;20181;-71
2024/01/19 03:10:10;;;;;;;40.50;17.57;;;0.00;83.10;;;;;;5017525;28;20284;-72
2024/01/19 03:12:36;;;;;;;40.27;16.30;;;-0.10;83.10;;;;;;5018370;28;20243;-71
2024/01/19 03:15:02;;;;;;;32.85;14.55;;;-0.20;83.70;;;;;;5018805;28;20620;-71
2024/01/19 03:17:28;;;;;;;45.20;18.83;;;-0.30;83.80;;;;;;5032260;28;20185;-71
2024/01/19 03:19:54;;;;;;;40.38;18.42;;;-0.40;84.30;;;;;;5031198;28;20667;-71
2024/01/19 03:22:19;;;;;;;42.67;18.63;;;-0.50;84.30;;;;;;5034408;28;20265;-71
2024/01/19 03:24:45;;;;;;;47.23;18.63;;;-0.40;84.70;;;;;;5019392;28;20678;-72
2024/01/19 03:27:10;;;;;;;36.70;14.93;;;-0.40;84.90;;;;;;5025846;28;20241;-73
2024/01/19 03:29:36;;;;;;;34.00;15.77;;;-0.40;84.90;;;;;;5021927;28;20206;-71
2024/01/19 03:32:02;;;;;;;45.37;18.40;;;-0.40;84.70;;;;;;5027980;28;20216;-71
2024/01/19 03:34:27;;;;;;;42.27;18.50;;;-0.50;84.70;;;;;;5024716;28;20405;-71
2024/01/19 03:36:53;;;;;;;42.27;17.47;;;-0.50;84.90;;;;;;5024272;28;20185;-71
2024/01/19 03:39:19;;;;;;;36.63;16.37;;;-0.50;85.00;;;;;;5019092;28;20201;-70
2024/01/19 03:41:44;;;;;;;36.60;16.53;;;-0.50;85.00;;;;;;5020894;28;20244;-71
2024/01/19 03:44:10;;;;;;;40.73;17.83;;;-0.50;85.20;;;;;;5017649;28;20413;-69
2024/01/19 03:46:35;;;;;;;31.83;16.23;;;-0.50;85.30;;;;;;5022111;28;20674;-71
2024/01/19 03:49:01;;;;;;;43.90;16.33;;;-0.40;85.50;;;;;;5018367;28;20194;-72
2024/01/19 03:51:26;;;;;;;45.63;19.90;;;-0.50;85.20;;;;;;5020446;28;20228;-71
2024/01/19 03:53:52;;;;;;;40.27;17.97;;;-0.50;85.00;;;;;;5017164;28;20476;-71
2024/01/19 03:56:18;;;;;;;40.73;18.40;;;-0.50;85.00;;;;;;5016508;28;20182;-71
2024/01/19 03:58:44;;;;;;;40.83;17.67;;;-0.40;85.30;;;;;;5031085;28;20249;-70
2024/01/19 04:01:09;;;;;;;36.37;17.13;;;-0.40;85.50;;;;;;5018016;28;20717;-71
2024/01/19 04:03:36;;;;;;;40.87;18.67;;;-0.40;85.20;;;;;;5025213;28;20182;-71
2024/01/19 04:06:02;;;;;;;33.17;16.73;;;-0.40;85.00;;;;;;5028733;28;20199;-70
2024/01/19 04:08:28;;;;;;;38.35;18.20;;;-0.40;85.00;;;;;;5035813;28;20185;-71
2024/01/19 04:10:54;;;;;;;34.00;17.50;;;-0.30;85.00;;;;;;5023840;28;20225;-71
2024/01/19 04:13:20;;;;;;;37.90;17.53;;;-0.20;85.00;;;;;;5029976;28;20420;-73
2024/01/19 04:15:45;;;;;;;38.07;17.27;;;-0.20;84.70;;;;;;5023480;28;20936;-71
2024/01/19 04:18:11;;;;;;;40.77;17.90;;;-0.20;84.30;;;;;;5030488;28;20193;-72
2024/01/19 04:20:36;;;;;;;33.13;15.53;;;-0.30;84.10;;;;;;5024325;28;20229;-71
2024/01/19 04:23:03;;;;;;;35.30;17.83;;;-0.30;84.10;;;;;;5019883;28;20197;-71
2024/01/19 04:25:28;;;;;;;34.13;17.30;;;-0.30;84.10;;;;;;5025512;28;20415;-72
2024/01/19 04:27:55;;;;;;;37.37;18.17;;;-0.20;84.10;;;;;;5029404;28;20679;-71
2024/01/19 04:30:20;;;;;;;41.28;17.67;;;-0.40;83.80;;;;;;5014068;28;20242;-71
2024/01/19 04:32:46;;;;;;;40.27;16.10;;;-0.40;83.80;;;;;;5024887;28;20182;-71
2024/01/19 04:35:12;;;;;;;50.63;19.57;;;-0.30;84.10;;;;;;5022706;28;20181;-72
2024/01/19 04:37:37;;;;;;;35.00;16.03;;;-0.30;83.80;;;;;;5014788;28;20230;-71
2024/01/19 04:40:03;;;;;;;41.63;17.67;;;-0.50;83.80;;;;;;5019153;28;20213;-71
2024/01/19 04:42:29;;;;;;;34.77;14.67;;;-0.60;84.10;;;;;;5020650;28;20198;-72
2024/01/19 04:44:54;;;;;;;33.20;16.13;;;-0.60;84.30;;;;;;5020661;28;20471;-71
2024/01/19 04:47:20;;;;;;;35.07;15.87;;;-0.40;84.60;;;;;;5018815;28;20189;-71
2024/01/19 04:49:45;;;;;;;44.53;16.43;;;-0.30;84.10;;;;;;5023303;28;20217;-71
2024/01/19 04:52:11;;;;;;;49.07;18.60;;;-0.30;84.00;;;;;;5018354;28;20820;-72
2024/01/19 04:54:36;;;;;;;40.77;18.77;;;-0.40;83.70;;;;;;5024984;28;20230;-72
2024/01/19 04:57:02;;;;;;;38.37;16.97;;;-0.50;84.00;;;;;;5028270;28;20220;-72
2024/01/19 04:59:28;;;;;;;38.83;17.70;;;-0.50;84.30;;;;;;5023634;28;20187;-71
2024/01/19 05:01:53;;;;;;;42.93;18.90;;;-0.40;84.70;;;;;;5011353;28;20208;-71
2024/01/19 05:04:19;;;;;;;37.77;17.53;;;-0.30;84.60;;;;;;5021688;28;20245;-70
2024/01/19 05:06:44;;;;;;;41.07;20.03;;;-0.30;84.70;;;;;;5012323;28;20257;-71
2024/01/19 05:09:10;;;;;;;52.50;20.60;;;-0.30;84.90;;;;;;5028660;28;20190;-71
2024/01/19 05:11:36;;;;;;;43.93;19.87;;;-0.40;85.00;;;;;;5002723;28;20209;-72
2024/01/19 05:14:03;;;;;;;55.67;22.43;;;-0.60;85.20;;;;;;5024728;28;20278;-71
2024/01/19 05:16:28;;;;;;;49.67;19.35;;;-0.40;85.60;;;;;;5015334;28;20894;-72
2024/01/19 05:18:54;;;;;;;44.43;18.37;;;-0.60;85.50;;;;;;5026083;28;20253;-73
2024/01/19 05:21:20;;;;;;;46.57;20.87;;;-0.50;85.60;;;;;;5012830;28;20263;-72
2024/01/19 05:23:45;;;;;;;40.00;18.07;;;-0.50;85.70;;;;;;5025006;28;20200;-71
2024/01/19 05:26:11;;;;;;;39.80;16.57;;;-0.40;85.70;;;;;;5015541;28;20186;-71
2024/01/19 05:28:36;;;;;;;41.57;18.97;;;-0.50;85.70;;;;;;5027209;28;20197;-71
2024/01/19 05:31:03;;;;;;;45.23;18.30;;;-0.40;85.70;;;;;;5008048;28;20252;-72
2024/01/19 05:33:31;;;;;;;39.45;16.17;;;-0.40;85.60;;;;;;5024247;28;20239;-72
2024/01/19 05:35:56;;;;;;;40.15;15.77;;;-0.40;85.60;;;;;;5018453;28;20268;-71
2024/01/19 05:38:22;;;;;;;40.80;18.50;;;-0.50;85.20;;;;;;5010704;28;20217;-71
2024/01/19 05:40:48;;;;;;;42.33;19.60;;;-0.50;85.00;;;;;;5016308;28;20242;-71
2024/01/19 05:43:14;;;;;;;35.55;17.70;;;-0.50;85.00;;;;;;5024355;28;20174;-71
2024/01/19 05:45:41;;;;;;;40.93;18.00;;;-0.50;85.00;;;;;;5019511;28;20666;-72
2024/01/19 05:48:06;;;;;;;50.05;19.15;;;-0.60;85.00;;;;;;5028619;28;20200;-73
2024/01/19 05:50:32;;;;;;;39.93;17.33;;;-0.60;85.00;;;;;;5013583;28;20608;-73
2024/01/19 05:52:58;;;;;;;34.47;16.53;;;-0.60;85.20;;;;;;5021150;28;20185;-71
2024/01/19 05:55:25;;;;;;;35.40;15.90;;;-0.60;85.20;;;;;;5016046;28;20204;-72
2024/01/19 05:57:50;;;;;;;38.50;17.23;;;-0.40;85.30;;;;;;5020321;28;20188;-72
2024/01/19 06:00:18;;;;;;;36.77;16.50;;;-0.40;85.00;;;;;;5018906;28;20270;-71
2024/01/19 06:02:43;;;;;;;38.05;18.10;;;-0.40;84.60;;;;;;5024479;28;20181;-71
2024/01/19 06:05:09;;;;;;;39.23;16.20;;;-0.50;84.40;;;;;;5015832;28;20186;-71
2024/01/19 06:07:35;;;;;;;40.80;18.47;;;-0.50;84.60;;;;;;5017949;28;20212;-71
2024/01/19 06:10:00;;;;;;;39.27;16.40;;;-0.50;84.70;;;;;;5009678;28;20531;-72
2024/01/19 06:12:26;;;;;;;32.83;17.77;;;-0.60;84.60;;;;;;5017174;28;20181;-71
2024/01/19 06:14:52;;;;;;;46.58;18.95;;;-0.50;84.90;;;;;;5018779;28;20182;-72
2024/01/19 06:17:19;;;;;;;37.03;17.27;;;-0.40;84.90;;;;;;5023482;28;20205;-71
2024/01/19 06:19:45;;;;;;;43.00;17.55;;;-0.40;84.90;;;;;;5022253;28;20186;-70
2024/01/19 06:22:10;;;;;;;34.37;15.97;;;-0.40;84.70;;;;;;5016850;28;20197;-70
2024/01/19 06:24:36;;;;;;;39.50;18.10;;;-0.30;84.60;;;;;;5025709;28;20196;-70
2024/01/19 06:27:03;;;;;;;43.37;18.33;;;-0.40;84.40;;;;;;5022544;28;20643;-72
2024/01/19 06:29:29;;;;;;;44.78;18.00;;;-0.50;84.40;;;;;;5016784;28;20209;-71
2024/01/19 06:31:54;;;;;;;40.13;18.00;;;-0.40;84.70;;;;;;5016207;28;20227;-70
2024/01/19 06:34:20;;;;;;;37.27;17.17;;;-0.30;84.90;;;;;;5027380;28;20175;-72
2024/01/19 06:36:45;;;;;;;42.27;18.40;;;-0.40;84.70;;;;;;5019407;28;20186;-75
2024/01/19 06:39:12;;;;;;;38.07;18.67;;;-0.30;84.70;;;;;;5018644;28;20194;-73
2024/01/19 06:41:44;;;;;;;44.42;19.38;;;-0.30;84.90;;;;;;5021225;28;20236;-72
2024/01/19 06:44:11;;;;;;;34.38;16.75;;;-0.40;85.00;;;;;;5017799;28;20616;-73
2024/01/19 06:46:37;;;;;;;36.08;17.33;;;-0.30;84.90;;;;;;5027392;28;20191;-73
2024/01/19 06:49:03;;;;;;;40.97;19.17;;;-0.20;85.00;;;;;;5026075;28;20332;-73
2024/01/19 06:51:28;;;;;;;41.50;18.23;;;-0.20;85.00;;;;;;5018004;28;20278;-74
2024/01/19 06:53:57;;;;;;;37.43;17.00;;;-0.10;85.00;;;;;;5018577;28;20209;-74
2024/01/19 06:56:23;;;;;;;37.80;16.55;;;0.00;85.00;;;;;;5021191;28;20275;-73
2024/01/19 06:58:48;;;;;;;37.00;17.20;;;0.20;85.30;;;;;;5016234;28;20224;-71
2024/01/19 07:01:14;;;;;;;38.03;17.10;;;0.20;85.00;;;;;;5014884;28;20471;-71
2024/01/19 07:03:40;;;;;;;37.93;15.83;;;0.10;84.60;;;;;;5032530;28;20190;-74
2024/01/19 07:06:05;;;;;;;31.13;16.10;;;-0.10;84.40;;;;;;5022177;28;20441;-71
2024/01/19 07:08:31;;;;;;;37.90;16.07;;;-0.20;83.80;;;;;;5018802;28;20241;-70
2024/01/19 07:10:57;;;;;;;36.97;17.53;;;-0.30;83.70;;;;;;5016346;28;20225;-72
2024/01/19 07:13:23;;;;;;;45.97;16.93;;;-0.20;83.80;;;;;;5017853;28;20178;-71
2024/01/19 07:15:48;;;;;;;33.50;15.43;;;-0.30;83.80;;;;;;5016593;28;20170;-73
2024/01/19 07:18:14;;;;;;;37.93;17.17;;;-0.30;84.00;;;;;;5018767;28;20436;-70
2024/01/19 07:20:39;;;;;;;43.97;18.23;;;-0.20;84.30;;;;;;5021585;28;20206;-72
2024/01/19 07:23:05;;;;;;;39.80;15.80;;;-0.30;84.40;;;;;;5014889;28;20191;-72
2024/01/19 07:25:31;;;;;;;38.90;16.87;;;-0.40;84.00;;;;;;5021664;28;20191;-72
2024/01/19 07:27:57;;;;;;;32.67;15.85;;;-0.30;84.00;;;;;;5012298;28;20190;-71
2024/01/19 07:30:22;;;;;;;34.67;16.07;;;-0.40;83.70;;;;;;5010244;28;20245;-72
2024/01/19 07:32:48;;;;;;;37.93;16.17;;;-0.40;83.70;;;;;;5013356;28;20655;-71
2024/01/19 07:35:13;;;;;;;36.33;16.33;;;-0.30;83.80;;;;;;5018056;28;20263;-71
2024/01/19 07:37:39;;;;;;;41.70;18.13;;;-0.30;83.70;;;;;;5021612;28;20202;-70
2024/01/19 07:40:05;;;;;;;34.63;16.90;;;-0.30;83.80;;;;;;5027098;28;20221;-73
2024/01/19 07:42:31;;;;;;;41.55;18.55;;;-0.30;84.00;;;;;;5020783;28;20247;-72
2024/01/19 07:44:56;;;;;;;38.33;17.63;;;-0.30;84.10;;;;;;5022406;28;20186;-73
2024/01/19 07:47:22;;;;;;;42.37;18.30;;;-0.30;84.30;;;;;;5019396;28;20178;-73
2024/01/19 07:49:48;;;;;;;42.57;17.00;;;-0.20;84.40;;;;;;5028806;28;20210;-72
2024/01/19 07:52:13;;;;;;;34.37;15.70;;;-0.10;84.60;;;;;;5014708;28;20554;-71
2024/01/19 07:54:39;;;;;;;36.73;16.60;;;-0.10;84.70;;;;;;5025159;28;20222;-69
2024/01/19 07:57:04;;;;;;;36.83;17.57;;;-0.10;84.60;;;;;;5032515;28;20223;-72
2024/01/19 07:59:30;;;;;;;46.30;20.70;;;-0.10;84.60;;;;;;5024124;28;20187;-72
2024/01/19 08:01:56;;;;;;;49.07;21.57;;;-0.30;84.40;;;;;;5019612;28;20220;-72
2024/01/19 08:04:21;;;;;;;40.10;18.63;;;-0.40;84.60;;;;;;5013068;28;20187;-70
2024/01/19 08:06:47;;;;;;;38.50;17.37;;;-0.30;84.60;;;;;;5025682;28;20189;-70
2024/01/19 08:09:13;;;;;;;48.73;19.20;;;-0.20;84.70;;;;;;5014924;28;20201;-71
2024/01/19 08:11:39;;;;;;;38.33;18.07;;;-0.10;84.70;;;;;;5017403;28;20213;-71
2024/01/19 08:14:05;;;;;;;40.67;20.30;;;0.00;84.70;;;;;;5009888;28;20978;-71
2024/01/19 08:16:30;;;;;;;41.03;19.17;;;0.10;84.70;;;;;;5022144;28;20239;-71
2024/01/19 08:18:56;;;;;;;44.33;18.20;;;0.20;84.40;;;;;;5012462;28;20214;-71
2024/01/19 08:21:22;;;;;;;49.60;21.23;;;0.20;84.10;;;;;;5022422;28;20296;-72
2024/01/19 08:23:48;;;;;;;43.53;20.27;;;0.20;84.00;;;;;;5013723;28;20183;-71
2024/01/19 08:26:14;;;;;;;47.67;21.40;;;0.30;84.00;;;;;;5021383;28;20181;-71
2024/01/19 08:28:40;;;;;;;42.83;20.40;;;0.20;84.00;;;;;;5011863;28;20179;-70
2024/01/19 08:31:11;;;;;;;41.23;20.00;;;0.30;84.00;;;;;;5023722;28;20485;-70
2024/01/19 08:33:37;;;;;;;45.75;21.38;;;0.30;83.80;;;;;;5018381;28;20760;-72
2024/01/19 08:36:02;;;;;;;48.03;22.13;;;0.30;83.80;;;;;;5022940;28;20186;-71
2024/01/19 08:38:28;;;;;;;50.50;21.73;;;0.20;83.70;;;;;;5016914;28;20441;-73
2024/01/19 08:40:54;;;;;;;46.70;22.43;;;0.10;84.00;;;;;;5019386;28;20504;-71
2024/01/19 08:43:19;;;;;;;42.80;22.10;;;0.10;84.10;;;;;;5021398;28;20200;-72
2024/01/19 08:45:45;;;;;;;49.93;21.77;;;0.10;84.30;;;;;;5027925;28;20257;-71
2024/01/19 08:48:11;;;;;;;45.30;21.20;;;0.10;84.10;;;;;;5018545;28;20182;-70
2024/01/19 08:50:36;;;;;;;47.13;21.03;;;0.10;84.10;;;;;;5012734;28;20726;-74
2024/01/19 08:53:02;;;;;;;49.37;21.60;;;0.10;84.10;;;;;;5019040;28;20192;-72
2024/01/19 08:55:29;;;;;;;47.47;22.00;;;0.20;84.10;;;;;;5024433;28;20270;-70
2024/01/19 08:57:55;;;;;;;48.30;21.77;;;0.20;84.10;;;;;;5014735;28;20213;-70
2024/01/19 09:00:21;;;;;;;51.25;22.75;;;0.20;84.10;;;;;;5018356;28;20214;-72
2024/01/19 09:02:49;;;;;;;53.47;24.13;;;0.20;84.30;;;;;;5014321;28;20509;-72
2024/01/19 09:05:16;;;;;;;44.70;22.58;;;0.20;84.10;;;;;;5013025;28;20464;-71
2024/01/19 09:07:42;;;;;;;51.22;23.48;;;0.30;84.30;;;;;;5019983;28;20186;-71
2024/01/19 09:10:08;;;;;;;49.33;22.98;;;0.20;84.10;;;;;;5014198;28;20840;-72
2024/01/19 09:12:33;;;;;;;53.13;23.50;;;0.10;84.10;;;;;;5018058;28;20182;-71
2024/01/19 09:14:59;;;;;;;48.37;21.93;;;0.00;84.30;;;;;;5020862;28;20444;-73
2024/01/19 09:17:24;;;;;;;55.37;23.53;;;0.00;84.60;;;;;;5021719;28;20192;-72
2024/01/19 09:19:51;;;;;;;49.07;23.67;;;0.10;84.60;;;;;;5018994;28;20177;-69
2024/01/19 09:22:17;;;;;;;57.25;24.67;;;0.00;84.60;;;;;;5012794;28;20186;-72
2024/01/19 09:24:43;;;;;;;47.90;22.08;;;0.10;84.60;;;;;;5022670;28;20182;-71
2024/01/19 09:27:08;;;;;;;55.47;23.30;;;0.20;84.70;;;;;;5024955;28;20178;-72
2024/01/19 09:29:34;;;;;;;54.53;23.00;;;0.20;84.40;;;;;;5027835;28;20452;-73
2024/01/19 09:31:59;;;;;;;54.97;23.53;;;0.20;84.40;;;;;;5015842;28;20705;-71
2024/01/19 09:34:25;;;;;;;56.03;22.03;;;0.30;84.40;;;;;;5022144;28;20193;-72
2024/01/19 09:36:50;;;;;;;45.97;20.60;;;0.40;84.30;;;;;;5033957;28;20197;-71
2024/01/19 09:39:16;;;;;;;51.33;22.77;;;0.40;84.30;;;;;;5015953;28;20670;-71
2024/01/19 09:41:55;;;;;;;53.93;23.30;;;0.50;84.10;;;;;;5025241;28;20234;-69
2024/01/19 09:44:22;;;;;;;49.90;22.58;;;0.60;84.10;;;;;;5009643;28;20189;-73
2024/01/19 09:46:51;;;;;;;51.60;23.00;;;0.60;84.00;;;;;;5018581;28;20174;-71
2024/01/19 09:49:45;;;;;;;57.30;23.70;;;0.60;83.80;;;;;;5016173;28;20201;-70
2024/01/19 09:52:39;;;;;;;45.83;22.95;;;0.60;83.60;;;;;;5016933;28;20253;-73
2024/01/19 09:55:04;;;;;;;54.38;24.00;;;0.70;83.60;;;;;;5026482;28;20185;-72
2024/01/19 09:57:31;;;;;;;50.33;21.87;;;0.80;83.70;;;;;;5028513;28;20208;-72
2024/01/19 09:59:57;;;;;;;51.03;24.20;;;1.00;83.70;;;;;;5024120;28;20888;-72
2024/01/19 10:02:26;;;;;;;52.40;22.03;;;1.10;83.60;;;;;;5014454;28;20220;-72
2024/01/19 10:04:53;;;;;;;41.88;21.27;;;1.20;83.10;;;;;;5022798;28;20185;-72
2024/01/19 10:07:20;;;;;;;47.00;20.80;;;1.10;82.40;;;;;;5016762;28;20182;-71
2024/01/19 10:09:51;;;;;;;49.63;22.98;;;1.00;81.80;;;;;;5028592;28;20252;-73
2024/01/19 10:12:19;;;;;;;49.45;22.25;;;1.10;81.70;;;;;;5020076;28;20182;-72
2024/01/19 10:14:44;;;;;;;45.65;21.70;;;1.20;81.50;;;;;;5035728;28;20223;-72
2024/01/19 10:17:10;;;;;;;47.60;21.60;;;1.20;81.40;;;;;;5023283;28;20174;-72
2024/01/19 10:19:38;;;;;;;45.60;21.33;;;1.20;81.50;;;;;;5031437;28;20194;-73
2024/01/19 10:22:28;;;;;;;41.10;20.73;;;1.30;81.70;;;;;;5018500;28;20594;-72
2024/01/19 10:25:05;;;;;;;52.03;22.92;;;1.40;81.70;;;;;;5015710;28;20256;-72
2024/01/19 10:27:46;;;;;;;41.15;21.85;;;1.40;81.40;;;;;;5017527;28;20649;-73
2024/01/19 10:30:13;;;;;;;43.08;21.90;;;1.60;81.50;;;;;;5013244;28;20217;-71
2024/01/19 10:32:40;;;;;;;40.60;19.92;;;1.60;81.10;;;;;;5022350;28;20181;-72
2024/01/19 10:35:12;;;;;;;39.33;20.05;;;1.70;80.50;;;;;;5012703;28;20190;-73
2024/01/19 10:37:38;;;;;;;41.83;18.70;;;1.60;79.90;;;;;;5023959;28;20197;-73
2024/01/19 10:40:17;;;;;;;42.13;20.40;;;1.70;79.70;;;;;;5016440;28;20667;-74
2024/01/19 10:42:45;;;;;;;44.60;18.63;;;1.80;79.50;;;;;;5019174;28;20192;-72
2024/01/19 10:45:18;;;;;;;42.40;19.17;;;1.90;78.90;;;;;;5020452;28;20185;-72
2024/01/19 10:47:49;;;;;;;37.00;18.05;;;2.10;78.60;;;;;;5024904;28;20177;-71
2024/01/19 10:50:16;;;;;;;42.30;19.87;;;2.40;78.40;;;;;;5014157;28;20249;-73
2024/01/19 10:52:51;;;;;;;37.40;19.80;;;2.70;77.80;;;;;;5017737;28;20809;-71
2024/01/19 10:55:22;;;;;;;39.47;18.48;;;2.70;76.40;;;;;;5019405;28;20669;-73
2024/01/19 10:57:53;;;;;;;39.13;19.40;;;3.10;75.50;;;;;;5027725;28;20189;-73
2024/01/19 11:00:22;;;;;;;35.33;17.20;;;3.30;74.30;;;;;;5016253;28;20216;-72
2024/01/19 11:02:56;;;;;;;34.03;17.17;;;3.20;74.20;;;;;;5020050;28;20439;-71
2024/01/19 11:05:23;;;;;;;38.73;18.60;;;3.40;73.90;;;;;;5031774;28;20448;-72
2024/01/19 11:07:53;;;;;;;36.00;17.35;;;3.20;73.00;;;;;;5020169;28;20544;-72
2024/01/19 11:10:20;;;;;;;34.58;15.45;;;2.80;72.70;;;;;;5030397;28;20222;-72
2024/01/19 11:12:51;;;;;;;35.10;16.13;;;2.70;72.90;;;;;;5020952;28;20182;-71
2024/01/19 11:15:36;;;;;;;28.05;14.40;;;2.80;73.20;;;;;;5031662;28;20189;-72
2024/01/19 11:18:04;;;;;;;36.50;17.30;;;2.80;72.70;;;;;;5025811;28;20185;-70
2024/01/19 11:20:33;;;;;;;33.05;16.67;;;2.50;73.00;;;;;;5024838;28;20296;-73
2024/01/19 11:23:00;;;;;;;26.33;13.38;;;2.20;74.20;;;;;;5025489;28;20211;-73
2024/01/19 11:26:03;;;;;;;27.08;13.20;;;2.00;74.90;;;;;;5021840;28;20170;-72
2024/01/19 11:28:47;;;;;;;24.67;13.75;;;1.70;74.80;;;;;;5021127;28;20181;-72
2024/01/19 11:31:24;;;;;;;20.52;11.07;;;1.50;74.80;;;;;;5022037;28;20225;-72
2024/01/19 11:33:52;;;;;;;22.65;11.18;;;1.60;75.40;;;;;;5025054;28;20188;-72
2024/01/19 11:36:39;;;;;;;29.17;14.60;;;1.60;75.40;;;;;;5021983;28;20182;-72
2024/01/19 11:39:05;;;;;;;25.45;14.35;;;1.90;75.80;;;;;;5032196;28;20208;-72
2024/01/19 11:41:34;;;;;;;28.40;13.35;;;2.00;76.10;;;;;;5013460;28;20213;-72
2024/01/19 11:44:07;;;;;;;14.95;9.18;;;2.00;75.70;;;;;;5030514;28;20189;-72
2024/01/19 11:46:45;;;;;;;22.13;11.68;;;1.70;74.80;;;;;;5014689;28;20189;-72
2024/01/19 11:49:29;;;;;;;22.50;12.20;;;1.90;75.10;;;;;;5023561;28;20269;-72
2024/01/19 11:51:58;;;;;;;18.40;10.02;;;2.10;74.50;;;;;;5016949;28;20301;-71
2024/01/19 11:54:33;;;;;;;13.52;8.10;;;2.10;73.90;;;;;;5025365;28;20174;-72
2024/01/19 11:57:16;;;;;;;18.02;9.20;;;2.00;73.00;;;;;;5031276;28;20407;-72
2024/01/19 11:59:43;;;;;;;16.33;7.72;;;2.20;73.20;;;;;;5018961;28;20190;-72
2024/01/19 12:02:20;;;;;;;15.98;8.32;;;2.20;72.90;;;;;;5025120;28;20683;-72
2024/01/19 12:04:47;;;;;;;14.88;8.20;;;2.30;72.30;;;;;;5018220;28;20228;-72
2024/01/19 12:07:17;;;;;;;15.73;8.38;;;2.40;72.70;;;;;;5026018;28;20174;-71
2024/01/19 12:09:43;;;;;;;15.50;8.07;;;2.40;72.30;;;;;;5019362;28;20581;-72
2024/01/19 12:12:09;;;;;;;13.17;7.00;;;2.40;71.60;;;;;;5021361;28;20190;-73
2024/01/19 12:14:34;;;;;;;15.15;7.60;;;2.20;71.10;;;;;;5017571;28;20174;-72
2024/01/19 12:17:00;;;;;;;17.60;7.17;;;2.00;70.80;;;;;;5019110;28;20200;-71
2024/01/19 12:19:26;;;;;;;18.13;7.80;;;1.90;71.40;;;;;;5020637;28;20611;-72
2024/01/19 12:21:55;;;;;;;11.50;7.30;;;2.00;71.30;;;;;;5016012;28;20248;-72
2024/01/19 12:24:21;;;;;;;15.73;7.15;;;2.00;71.40;;;;;;5027139;28;20189;-72
2024/01/19 12:26:50;;;;;;;16.40;7.57;;;2.10;71.70;;;;;;5022664;28;20185;-71
2024/01/19 12:29:32;;;;;;;14.38;7.95;;;2.20;71.40;;;;;;5018925;28;20635;-71
2024/01/19 12:32:15;;;;;;;18.05;7.70;;;2.30;70.50;;;;;;5012871;28;21029;-72